Time;durP1;ratioP1;P1;durP2;ratioP2;P2;SDS_P1;SDS_P2;PMS_P1;PMS_P2;Temp;Humidity;BMP_temperature;BMP_pressure;BME280_temperature;BME280_humidity;BME280_pressure;Samples;Min_cycle;Max_cycle;Signal;HPM_P1;HPM_P2
2021/09/11 00:01:57;;;;;;;;;3.67;3.00;;;;;20.77;65.28;101481.91;5056330;28;54459;-73
2021/09/11 00:04:23;;;;;;;;;4.33;4.33;;;;;20.77;65.15;101484.59;5056116;28;45459;-75
2021/09/11 00:06:48;;;;;;;;;3.33;2.67;;;;;20.76;64.88;101484.63;5056170;28;51210;-72
2021/09/11 00:09:13;;;;;;;;;4.33;4.33;;;;;20.68;65.06;101471.38;5055280;28;52416;-72
2021/09/11 00:11:39;;;;;;;;;3.67;3.67;;;;;20.70;64.93;101482.97;5053134;28;59701;-73
2021/09/11 00:14:04;;;;;;;;;3.33;3.33;;;;;20.69;64.74;101477.63;5056288;28;48267;-74
2021/09/11 00:16:30;;;;;;;;;4.67;2.67;;;;;20.69;65.21;101486.56;5056500;28;45692;-73
2021/09/11 00:18:55;;;;;;;;;5.33;3.67;;;;;20.68;65.19;101479.44;5056076;28;50949;-72
2021/09/11 00:21:20;;;;;;;;;5.00;3.67;;;;;20.65;65.48;101479.47;5056344;28;46181;-75
2021/09/11 00:23:46;;;;;;;;;4.67;4.67;;;;;20.64;64.68;101483.97;5056614;28;45333;-77
2021/09/11 00:26:11;;;;;;;;;4.67;4.67;;;;;20.60;64.56;101467.97;5055734;28;45333;-72
2021/09/11 00:28:37;;;;;;;;;7.00;3.33;;;;;20.62;65.01;101483.13;5056288;28;52973;-76
2021/09/11 00:31:02;;;;;;;;;5.33;3.00;;;;;20.63;65.18;101484.00;5055757;28;48289;-73
2021/09/11 00:33:27;;;;;;;;;3.67;3.67;;;;;20.62;64.92;101487.63;5055938;28;57921;-72
2021/09/11 00:35:53;;;;;;;;;6.00;4.33;;;;;20.60;64.68;101473.31;5056514;28;45431;-72
2021/09/11 00:38:18;;;;;;;;;5.00;4.00;;;;;20.58;64.64;101478.72;5055541;28;47697;-72
2021/09/11 00:40:44;;;;;;;;;4.33;3.00;;;;;20.56;64.34;101472.53;5051003;28;57950;-76
2021/09/11 00:43:09;;;;;;;;;4.00;4.00;;;;;20.57;64.93;101473.41;5049065;28;45381;-73
2021/09/11 00:45:34;;;;;;;;;3.00;3.00;;;;;20.55;64.39;101489.50;5055657;28;50570;-72
2021/09/11 00:48:00;;;;;;;;;3.67;3.67;;;;;20.53;64.44;101479.72;5052569;28;45559;-72
2021/09/11 00:50:25;;;;;;;;;6.33;3.67;;;;;20.52;64.92;101481.53;5048010;28;48347;-76
2021/09/11 00:52:51;;;;;;;;;3.33;3.33;;;;;20.50;64.48;101480.66;5056019;28;45321;-75
2021/09/11 00:55:16;;;;;;;;;5.33;4.00;;;;;20.47;64.46;101475.38;5056056;28;45301;-77
2021/09/11 00:57:46;;;;;;;;;4.00;4.00;;;;;20.47;64.70;101487.91;5056083;28;45209;-76
2021/09/11 01:00:12;;;;;;;;;4.00;4.00;;;;;20.42;64.34;101490.66;5056084;28;45645;-73
2021/09/11 01:02:37;;;;;;;;;4.00;4.00;;;;;20.40;64.09;101487.13;5055567;28;45441;-75
2021/09/11 01:05:04;;;;;;;;;3.67;3.67;;;;;20.35;64.34;101483.63;5056074;28;45258;-74
2021/09/11 01:07:30;;;;;;;;;3.33;3.33;;;;;20.35;64.16;101489.00;5055840;28;45454;-77
2021/09/11 01:09:56;;;;;;;;;4.33;4.33;;;;;20.32;64.16;101489.94;5055859;28;47521;-73
2021/09/11 01:12:22;;;;;;;;;6.00;3.67;;;;;20.29;64.17;101489.97;5054344;28;45474;-73
2021/09/11 01:14:47;;;;;;;;;5.33;4.00;;;;;20.27;64.33;101496.28;5055048;28;51730;-72
2021/09/11 01:17:14;;;;;;;;;6.00;6.00;;;;;20.23;64.25;101486.53;5055858;28;45658;-74
2021/09/11 01:19:40;;;;;;;;;3.33;3.33;;;;;20.24;64.50;101501.69;5056474;28;45702;-73
2021/09/11 01:22:05;;;;;;;;;4.33;3.33;;;;;20.21;64.50;101494.59;5058596;28;58319;-75
2021/09/11 01:24:30;;;;;;;;;2.00;2.00;;;;;20.19;64.71;101491.09;5058962;28;52074;-75
2021/09/11 01:26:56;;;;;;;;;5.00;5.00;;;;;20.20;64.25;101497.31;5058929;28;51304;-72
2021/09/11 01:29:21;;;;;;;;;4.00;4.00;;;;;20.18;64.69;101500.00;5058631;28;62827;-74
2021/09/11 01:31:47;;;;;;;;;5.00;3.33;;;;;20.14;64.25;101498.31;5058494;28;45376;-74
2021/09/11 01:34:12;;;;;;;;;3.33;3.33;;;;;20.09;64.22;101494.84;5058644;28;54076;-73
2021/09/11 01:36:37;;;;;;;;;7.67;5.00;;;;;20.09;64.45;101494.84;5058526;28;51658;-75
2021/09/11 01:39:03;;;;;;;;;4.00;4.00;;;;;20.12;64.03;101500.13;5058769;28;46456;-73
2021/09/11 01:41:28;;;;;;;;;5.00;3.00;;;;;20.12;64.27;101505.50;5057092;28;46374;-75
2021/09/11 01:43:54;;;;;;;;;4.33;3.33;;;;;20.01;64.11;101496.75;5058557;28;52165;-72
2021/09/11 01:46:19;;;;;;;;;5.00;3.67;;;;;20.08;64.19;101506.44;5058757;28;45144;-72
2021/09/11 01:48:45;;;;;;;;;5.00;4.00;;;;;20.01;63.79;101492.28;5055770;28;61357;-74
2021/09/11 01:51:10;;;;;;;;;4.00;4.00;;;;;20.03;64.18;101500.31;5058315;28;45481;-71
2021/09/11 01:53:35;;;;;;;;;4.00;4.00;;;;;20.03;63.98;101503.00;5058387;28;52547;-73
2021/09/11 01:56:01;;;;;;;;;4.00;4.00;;;;;20.02;63.98;101498.53;5058418;28;45272;-74
2021/09/11 01:58:26;;;;;;;;;7.00;5.00;;;;;19.99;64.16;101501.28;5058216;28;62003;-72
2021/09/11 02:00:51;;;;;;;;;4.00;4.00;;;;;19.96;63.97;101509.34;5058161;28;52751;-72
2021/09/11 02:03:17;;;;;;;;;3.67;3.67;;;;;19.95;63.67;101504.91;5058354;28;53238;-76
2021/09/11 02:05:42;;;;;;;;;3.00;3.00;;;;;19.95;63.74;101500.44;5056914;28;45516;-74
2021/09/11 02:08:08;;;;;;;;;5.00;5.00;;;;;19.94;63.85;101503.16;5058615;28;46445;-73
2021/09/11 02:10:34;;;;;;;;;4.67;3.33;;;;;19.92;63.40;101496.91;5058461;28;45317;-72
2021/09/11 02:12:59;;;;;;;;;4.00;4.00;;;;;19.86;63.61;101504.13;5058135;28;45466;-73
2021/09/11 02:15:25;;;;;;;;;4.00;3.00;;;;;19.84;63.46;101508.66;5058456;28;45417;-73
2021/09/11 02:17:50;;;;;;;;;3.00;3.00;;;;;19.83;63.70;101517.59;5058432;28;45274;-72
2021/09/11 02:20:15;;;;;;;;;4.00;3.00;;;;;19.82;63.63;101513.16;5057863;28;58905;-75
2021/09/11 02:22:41;;;;;;;;;3.00;3.00;;;;;19.81;63.59;101508.69;5058396;28;45211;-76
2021/09/11 02:25:07;;;;;;;;;5.00;3.33;;;;;19.82;63.48;101514.97;5058741;28;45254;-72
2021/09/11 02:27:32;;;;;;;;;3.00;3.00;;;;;19.77;64.06;101503.44;5057003;28;45771;-72
2021/09/11 02:29:57;;;;;;;;;3.00;3.00;;;;;19.79;63.42;101507.84;5058047;28;45390;-73
2021/09/11 02:32:23;;;;;;;;;1.67;1.67;;;;;19.73;63.61;101497.22;5057080;28;45895;-72
2021/09/11 02:34:48;;;;;;;;;3.00;3.00;;;;;19.78;63.71;101508.75;5056920;28;47753;-73
2021/09/11 02:37:14;;;;;;;;;3.00;3.00;;;;;19.76;63.21;101507.00;5057677;28;56705;-71
2021/09/11 02:39:39;;;;;;;;;2.67;2.67;;;;;19.72;63.38;101500.81;5049329;28;45279;-74
2021/09/11 02:42:06;;;;;;;;;4.00;3.00;;;;;19.72;63.56;101498.13;5055945;28;45344;-75
2021/09/11 02:44:31;;;;;;;;;3.67;3.67;;;;;19.71;63.60;101495.47;5052879;28;45542;-73
2021/09/11 02:46:56;;;;;;;;;4.33;3.00;;;;;19.69;63.71;101498.16;5057687;28;46091;-74
2021/09/11 02:49:22;;;;;;;;;4.33;3.33;;;;;19.68;63.81;101498.22;5053656;28;45593;-75
2021/09/11 02:51:47;;;;;;;;;4.00;4.00;;;;;19.65;63.48;101503.59;5053752;28;50534;-73
2021/09/11 02:54:13;;;;;;;;;4.00;4.00;;;;;19.62;63.37;101502.75;5057718;28;45419;-75
2021/09/11 02:56:38;;;;;;;;;6.00;5.00;;;;;19.60;63.46;101499.22;5057933;28;45653;-75
2021/09/11 02:59:03;;;;;;;;;4.33;3.00;;;;;19.58;63.72;101502.78;5056842;28;58668;-72
2021/09/11 03:01:29;;;;;;;;;3.00;3.00;;;;;19.54;63.29;101501.94;5057534;28;52431;-73
2021/09/11 03:03:54;;;;;;;;;4.33;3.00;;;;;19.55;63.64;101502.84;5057608;28;45448;-75
2021/09/11 03:06:20;;;;;;;;;2.00;2.00;;;;;19.51;63.35;101502.00;5055658;28;56509;-74
2021/09/11 03:08:45;;;;;;;;;5.67;3.67;;;;;19.48;63.54;101506.50;5057490;28;45385;-74
2021/09/11 03:11:11;;;;;;;;;3.00;3.00;;;;;19.43;63.68;101508.38;5057070;28;54827;-76
2021/09/11 03:13:36;;;;;;;;;5.33;3.00;;;;;19.34;63.40;101494.22;5057429;28;45232;-73
2021/09/11 03:16:01;;;;;;;;;3.00;3.00;;;;;19.34;63.58;101504.94;5056302;28;57275;-72
2021/09/11 03:18:27;;;;;;;;;6.33;4.00;;;;;19.29;63.40;101501.44;5057445;28;45336;-73
2021/09/11 03:20:52;;;;;;;;;4.67;4.00;;;;;19.18;63.51;101491.78;5056936;28;53789;-75
2021/09/11 03:23:18;;;;;;;;;3.00;3.00;;;;;19.20;63.79;101504.22;5057509;28;45236;-72
2021/09/11 03:25:43;;;;;;;;;3.00;3.00;;;;;19.17;63.67;101509.63;5056597;28;59585;-75
2021/09/11 03:28:09;;;;;;;;;3.00;3.00;;;;;19.17;64.25;101512.28;5057157;28;45493;-72
2021/09/11 03:30:34;;;;;;;;;4.00;4.00;;;;;19.17;64.24;101511.41;5056999;28;51681;-72
2021/09/11 03:32:59;;;;;;;;;7.33;3.00;;;;;19.16;64.01;101504.28;5055728;28;47229;-73
2021/09/11 03:35:26;;;;;;;;;3.67;3.67;;;;;19.15;64.13;101508.75;5056749;28;61776;-73
2021/09/11 03:37:51;;;;;;;;;3.67;2.00;;;;;19.13;64.18;101499.88;5056901;28;45267;-75
2021/09/11 03:40:17;;;;;;;;;5.33;2.33;;;;;19.13;64.27;101497.22;5056241;28;45363;-74
2021/09/11 03:42:42;;;;;;;;;5.00;4.00;;;;;19.14;63.89;101498.09;5051887;28;45578;-75
2021/09/11 03:45:08;;;;;;;;;3.00;3.00;;;;;19.11;63.82;101504.34;5052106;28;59403;-73
2021/09/11 03:47:33;;;;;;;;;3.00;3.00;;;;;19.10;64.03;101505.25;5056886;28;45323;-73
2021/09/11 03:49:59;;;;;;;;;3.33;2.00;;;;;19.07;64.02;101499.97;5055856;28;45421;-72
2021/09/11 03:52:24;;;;;;;;;3.00;3.00;;;;;19.06;64.13;101500.84;5056341;28;52315;-72
2021/09/11 03:54:50;;;;;;;;;4.00;4.00;;;;;19.04;63.91;101503.56;5056381;28;60801;-75
2021/09/11 03:57:15;;;;;;;;;4.33;3.00;;;;;19.06;64.08;101503.53;5056354;28;57489;-72
2021/09/11 03:59:40;;;;;;;;;3.00;3.00;;;;;19.05;64.43;101496.41;5056569;28;54673;-72
2021/09/11 04:02:06;;;;;;;;;3.00;3.00;;;;;19.05;64.45;101508.00;5056364;28;53937;-72
2021/09/11 04:04:31;;;;;;;;;3.00;3.00;;;;;19.05;64.28;101499.97;5056047;28;58992;-72
2021/09/11 04:06:56;;;;;;;;;3.00;3.00;;;;;19.05;63.96;101504.44;5055063;28;46979;-75
2021/09/11 04:09:22;;;;;;;;;3.33;3.33;;;;;19.05;64.28;101508.00;5056386;28;56217;-72
2021/09/11 04:11:47;;;;;;;;;2.00;2.00;;;;;19.06;64.42;101507.09;5056873;28;46215;-75
2021/09/11 04:14:13;;;;;;;;;2.67;2.67;;;;;19.05;64.01;101507.13;5055332;28;60920;-72
2021/09/11 04:16:38;;;;;;;;;2.67;2.67;;;;;19.06;64.35;101516.91;5056508;28;45369;-75
2021/09/11 04:19:04;;;;;;;;;2.33;2.33;;;;;19.05;64.00;101516.03;5056122;28;55686;-72
2021/09/11 04:21:29;;;;;;;;;2.67;2.67;;;;;19.04;64.20;101521.41;5056358;28;45272;-73
2021/09/11 04:23:54;;;;;;;;;4.33;3.00;;;;;19.03;64.20;101517.84;5055612;28;56861;-75
2021/09/11 04:26:20;;;;;;;;;2.33;2.33;;;;;19.01;64.03;101516.09;5052570;28;59755;-75
2021/09/11 04:28:45;;;;;;;;;5.33;2.00;;;;;19.02;64.36;101518.75;5055954;28;54685;-76
2021/09/11 04:31:10;;;;;;;;;3.00;3.00;;;;;18.99;63.88;101517.91;5056068;28;45441;-74
2021/09/11 04:33:36;;;;;;;;;2.00;2.00;;;;;18.99;63.96;101516.13;5055460;28;58384;-74
2021/09/11 04:36:01;;;;;;;;;3.67;3.00;;;;;18.99;64.01;101518.78;5055125;28;45448;-72
2021/09/11 04:38:27;;;;;;;;;2.33;2.33;;;;;18.98;63.86;101516.13;5055716;28;48077;-75
2021/09/11 04:40:52;;;;;;;;;3.00;2.00;;;;;18.97;64.35;101511.69;5056376;28;45470;-74
2021/09/11 04:43:18;;;;;;;;;4.67;4.00;;;;;18.96;63.82;101517.94;5053932;28;45599;-75
2021/09/11 04:45:48;;;;;;;;;3.00;3.00;;;;;18.94;64.41;101519.75;5056544;28;45311;-75
2021/09/11 04:48:13;;;;;;;;;8.33;3.00;;;;;18.94;64.22;101514.41;5056290;28;45365;-73
2021/09/11 04:50:38;;;;;;;;;2.00;2.00;;;;;18.93;64.23;101520.66;5056297;28;45382;-75
2021/09/11 04:53:04;;;;;;;;;3.00;3.00;;;;;18.89;64.39;101513.56;5055953;28;45606;-74
2021/09/11 04:55:29;;;;;;;;;2.00;2.00;;;;;18.90;64.15;101518.00;5058290;28;45411;-73
2021/09/11 04:57:55;;;;;;;;;2.00;2.00;;;;;18.89;64.34;101517.13;5059785;28;45690;-71
2021/09/11 05:00:20;;;;;;;;;3.33;3.33;;;;;18.89;63.96;101526.94;5059631;28;45313;-74
2021/09/11 05:02:45;;;;;;;;;2.00;2.00;;;;;18.87;64.42;101526.97;5059134;28;45972;-74
2021/09/11 05:05:11;;;;;;;;;3.00;3.00;;;;;18.86;64.18;101532.34;5059233;28;45256;-72
2021/09/11 05:07:36;;;;;;;;;5.00;3.00;;;;;18.81;64.53;101530.63;5057643;28;45410;-74
2021/09/11 05:10:02;;;;;;;;;3.33;2.67;;;;;18.81;64.53;101530.63;5059555;28;45412;-73
2021/09/11 05:12:27;;;;;;;;;3.67;3.00;;;;;18.77;64.85;101526.19;5058606;28;46539;-76
2021/09/11 05:14:53;;;;;;;;;4.67;3.00;;;;;18.79;64.56;101536.88;5059186;28;45356;-73
2021/09/11 05:17:18;;;;;;;;;4.33;3.00;;;;;18.79;64.43;101536.88;5059181;28;46366;-74
2021/09/11 05:19:43;;;;;;;;;3.00;3.00;;;;;18.79;64.63;101544.91;5059421;28;45278;-76
2021/09/11 05:22:09;;;;;;;;;2.67;2.67;;;;;18.78;64.39;101537.78;5059173;28;49446;-76
2021/09/11 05:24:34;;;;;;;;;2.00;2.00;;;;;18.78;64.57;101543.13;5058980;28;53036;-76
2021/09/11 05:27:00;;;;;;;;;4.00;3.00;;;;;18.76;64.30;101537.81;5059258;28;45401;-74
2021/09/11 05:29:25;;;;;;;;;3.00;3.00;;;;;18.77;64.25;101542.25;5059176;28;45429;-76
2021/09/11 05:31:51;;;;;;;;;2.33;2.33;;;;;18.74;64.58;101536.03;5058098;28;46639;-73
2021/09/11 05:34:16;;;;;;;;;3.00;3.00;;;;;18.74;64.29;101542.28;5058980;28;45388;-73
2021/09/11 05:36:42;;;;;;;;;4.00;2.00;;;;;18.73;64.45;101540.50;5059175;28;45554;-76
2021/09/11 05:39:07;;;;;;;;;3.33;2.00;;;;;18.72;64.58;101538.75;5058843;28;45664;-72
2021/09/11 05:41:32;;;;;;;;;3.00;3.00;;;;;18.70;64.51;101537.88;5058531;28;45605;-74
2021/09/11 05:43:58;;;;;;;;;2.00;2.00;;;;;18.66;64.57;101536.09;5057014;28;45260;-75
2021/09/11 05:46:23;;;;;;;;;4.67;3.00;;;;;18.70;64.62;101551.25;5057739;28;45704;-72
2021/09/11 05:48:49;;;;;;;;;4.33;3.00;;;;;18.70;65.00;101553.06;5058647;28;45207;-74
2021/09/11 05:51:14;;;;;;;;;3.00;3.00;;;;;18.68;64.80;101550.38;5058515;28;45708;-75
2021/09/11 05:53:39;;;;;;;;;4.00;4.00;;;;;18.69;64.64;101560.16;5058931;28;45343;-73
2021/09/11 05:56:05;;;;;;;;;3.00;3.00;;;;;18.71;64.97;101560.16;5058773;28;45326;-74
2021/09/11 05:58:30;;;;;;;;;2.00;2.00;;;;;18.71;64.44;101571.75;5059281;28;45507;-76
2021/09/11 06:00:56;;;;;;;;;4.00;3.00;;;;;18.75;64.85;101575.25;5055958;28;46503;-73
2021/09/11 06:03:22;;;;;;;;;3.00;3.00;;;;;18.75;64.88;101577.94;5058786;28;45517;-76
2021/09/11 06:05:47;;;;;;;;;5.00;3.00;;;;;18.74;64.61;101579.72;5057515;28;45326;-75
2021/09/11 06:08:13;;;;;;;;;4.00;4.00;;;;;18.79;64.93;101590.38;5055901;28;45575;-74
2021/09/11 06:10:38;;;;;;;;;2.00;2.00;;;;;18.78;64.58;101585.94;5055949;28;45711;-77
2021/09/11 06:13:03;;;;;;;;;3.67;2.67;;;;;18.81;64.52;101585.94;5051706;28;45426;-76
2021/09/11 06:15:29;;;;;;;;;4.00;3.00;;;;;18.82;64.60;101590.38;5053393;28;45830;-76
2021/09/11 06:17:54;;;;;;;;;3.33;3.00;;;;;18.77;64.56;101582.38;5053160;28;45399;-75
2021/09/11 06:20:20;;;;;;;;;2.00;2.00;;;;;18.83;64.74;101590.34;5052236;28;46051;-76
2021/09/11 06:22:45;;;;;;;;;3.67;3.00;;;;;18.87;64.97;101591.19;5050056;28;45438;-76
2021/09/11 06:25:12;;;;;;;;;3.67;3.67;;;;;18.89;64.53;101597.41;5052564;28;45367;-73
2021/09/11 06:27:38;;;;;;;;;3.00;3.00;;;;;18.91;64.67;101600.97;5051866;28;45546;-73
2021/09/11 06:30:04;;;;;;;;;4.00;1.67;;;;;18.91;64.56;101587.59;5053482;28;45619;-73
2021/09/11 06:32:30;;;;;;;;;3.00;2.00;;;;;18.92;64.17;101581.34;5054871;28;45464;-75
2021/09/11 06:34:56;;;;;;;;;2.33;2.00;;;;;18.96;64.59;101590.19;5050651;28;45313;-74
2021/09/11 06:37:21;;;;;;;;;4.33;2.00;;;;;18.90;64.25;101582.25;5049832;28;45523;-74
2021/09/11 06:39:47;;;;;;;;;3.00;2.00;;;;;18.94;64.03;101595.56;5051670;28;46767;-75
2021/09/11 06:45:33;;;;;;;;;8.00;2.00;;;;;19.01;63.69;101601.72;5037820;28;45516;-78
2021/09/11 06:48:02;;;;;;;;;2.00;2.00;;;;;19.02;63.91;101595.50;5035157;28;45886;-76
2021/09/11 06:50:27;;;;;;;;;2.00;2.00;;;;;19.01;63.74;101596.38;5022903;28;46776;-74
2021/09/11 06:52:53;;;;;;;;;3.67;2.00;;;;;19.01;63.92;101596.38;5032415;28;45323;-74
2021/09/11 06:55:18;;;;;;;;;5.33;1.00;;;;;19.02;63.90;101601.75;5023393;28;45604;-75
2021/09/11 06:57:44;;;;;;;;;2.00;2.00;;;;;19.00;63.81;101598.16;5028785;28;45432;-76
2021/09/11 07:00:10;;;;;;;;;3.33;3.33;;;;;19.03;64.23;101598.16;5039469;28;51206;-75
2021/09/11 07:02:35;;;;;;;;;5.00;3.00;;;;;19.06;63.91;101605.25;5021094;28;45339;-74
2021/09/11 07:05:00;;;;;;;;;3.00;2.00;;;;;19.07;63.84;101615.06;5018341;28;45387;-79
2021/09/11 07:07:26;;;;;;;;;2.00;2.00;;;;;19.11;63.64;101616.78;5031586;28;45490;-74
2021/09/11 07:09:51;;;;;;;;;2.00;2.00;;;;;19.58;64.02;101628.69;5033807;28;54868;-73
2021/09/11 07:12:17;;;;;;;;;2.00;2.00;;;;;20.14;62.89;101624.34;5035811;28;55242;-77
2021/09/11 07:14:43;;;;;;;;;6.00;3.00;;;;;20.35;61.82;101628.47;5025899;28;45434;-76
2021/09/11 07:17:08;;;;;;;;;4.00;2.33;;;;;20.22;61.11;101630.47;5029800;28;45426;-75
2021/09/11 07:19:34;;;;;;;;;2.67;2.67;;;;;20.02;61.12;101628.09;5035595;28;46523;-78
2021/09/11 07:21:59;;;;;;;;;3.00;1.67;;;;;19.83;61.52;101640.00;5044048;28;45629;-77
2021/09/11 07:24:25;;;;;;;;;3.00;2.00;;;;;19.63;62.21;101626.88;5028895;28;56411;-76
2021/09/11 07:26:50;;;;;;;;;3.67;2.00;;;;;19.48;62.44;101629.72;5032903;28;53014;-76
2021/09/11 07:29:16;;;;;;;;;3.67;2.00;;;;;19.29;63.08;101629.09;5035289;28;47520;-77
2021/09/11 07:31:41;;;;;;;;;3.00;2.00;;;;;19.14;63.29;101626.59;5033578;28;45348;-75
2021/09/11 07:34:07;;;;;;;;;2.00;2.00;;;;;19.00;64.04;101630.28;5034620;28;50795;-75
2021/09/11 07:36:32;;;;;;;;;2.67;2.00;;;;;18.98;64.29;101628.56;5024912;28;46686;-75
2021/09/11 07:38:57;;;;;;;;;2.00;2.00;;;;;19.01;63.89;101633.84;5001150;22;46340;-77
2021/09/11 07:41:23;;;;;;;;;5.00;1.00;;;;;19.09;63.79;101632.00;5031964;28;45525;-74
2021/09/11 07:43:48;;;;;;;;;1.00;1.00;;;;;19.14;64.09;101630.16;5030182;28;54353;-74
2021/09/11 07:46:14;;;;;;;;;2.33;2.33;;;;;19.16;63.80;101633.69;5030923;28;45555;-75
2021/09/11 07:48:39;;;;;;;;;4.00;2.00;;;;;19.17;63.71;101634.56;5033636;28;57166;-75
2021/09/11 07:51:04;;;;;;;;;6.33;3.00;;;;;19.15;63.67;101637.28;5031634;28;45430;-75
2021/09/11 07:53:30;;;;;;;;;2.33;2.00;;;;;19.15;63.30;101631.03;5035467;28;45544;-79
2021/09/11 07:55:55;;;;;;;;;3.67;2.00;;;;;19.20;63.22;101639.91;5031706;28;46715;-79
2021/09/11 07:58:21;;;;;;;;;2.00;2.00;;;;;19.15;63.13;101647.97;5036137;28;47299;-77
2021/09/11 08:00:46;;;;;;;;;1.67;1.67;;;;;19.09;63.46;101643.59;5035603;28;45431;-77
2021/09/11 08:03:11;;;;;;;;;2.00;1.00;;;;;19.09;62.98;101640.91;5030326;28;45689;-78
2021/09/11 08:05:37;;;;;;;;;2.00;2.00;;;;;19.08;62.46;101648.97;5018223;28;45697;-77
2021/09/11 08:08:03;;;;;;;;;1.00;1.00;;;;;19.05;62.17;101643.63;5027159;28;47008;-75
2021/09/11 08:10:29;;;;;;;;;2.33;1.00;;;;;19.03;61.36;101645.44;5036037;28;45330;-77
2021/09/11 08:12:54;;;;;;;;;3.33;2.67;;;;;19.03;62.34;101651.69;5035756;28;47052;-75
2021/09/11 08:15:19;;;;;;;;;1.00;1.00;;;;;19.01;62.28;101647.25;5036015;28;54207;-74
2021/09/11 08:17:45;;;;;;;;;3.00;2.00;;;;;19.03;62.18;101651.69;5035891;28;46433;-75
2021/09/11 08:20:12;;;;;;;;;3.33;1.00;;;;;19.05;62.45;101651.66;5031007;28;45195;-75
2021/09/11 08:22:37;;;;;;;;;1.00;1.00;;;;;19.12;61.43;101666.75;5035128;28;45444;-75
2021/09/11 08:25:03;;;;;;;;;2.67;1.00;;;;;19.16;61.70;101670.28;5034729;28;45963;-75
2021/09/11 08:27:28;;;;;;;;;2.00;1.00;;;;;19.17;61.02;101664.91;5031986;28;47405;-74
2021/09/11 08:29:54;;;;;;;;;1.00;1.00;;;;;19.19;60.47;101665.78;5023891;28;46738;-75
2021/09/11 08:32:19;;;;;;;;;2.67;1.00;;;;;19.24;60.62;101671.97;5033676;28;45394;-74
2021/09/11 08:34:44;;;;;;;;;2.00;1.00;;;;;19.27;60.89;101666.56;5029864;28;46887;-75
2021/09/11 08:37:10;;;;;;;;;1.00;1.00;;;;;19.31;60.82;101673.66;5035971;28;46498;-75
2021/09/11 08:39:35;;;;;;;;;2.33;1.00;;;;;19.37;61.17;101675.38;5033099;28;59114;-75
2021/09/11 08:42:01;;;;;;;;;0.67;0.67;;;;;19.45;60.58;101673.53;5035810;28;48042;-74
2021/09/11 08:44:26;;;;;;;;;4.67;0.00;;;;;19.50;61.39;101671.69;5036352;28;45855;-76
2021/09/11 08:46:52;;;;;;;;;2.67;0.00;;;;;19.54;60.67;101664.47;5037967;28;46354;-74
2021/09/11 08:49:18;;;;;;;;;2.33;1.67;;;;;19.62;61.17;101676.91;5034904;28;45617;-73
2021/09/11 08:51:44;;;;;;;;;2.00;1.00;;;;;19.70;60.75;101668.75;5033303;28;45587;-73
2021/09/11 08:54:09;;;;;;;;;2.33;1.00;;;;;19.77;60.26;101669.56;5022668;28;45568;-74
2021/09/11 08:56:39;;;;;;;;;3.00;1.67;;;;;19.80;59.39;101665.03;5020611;28;47205;-73
2021/09/11 08:59:08;;;;;;;;;1.00;1.00;;;;;19.86;59.75;101664.06;5035448;28;45287;-74
2021/09/11 09:01:34;;;;;;;;;7.00;1.00;;;;;19.87;59.00;101669.44;5024013;28;45453;-73
2021/09/11 09:03:59;;;;;;;;;2.33;0.33;;;;;19.88;58.08;101662.28;5027014;28;45417;-74
2021/09/11 09:06:27;;;;;;;;;1.33;1.00;;;;;19.92;58.36;101663.09;5023522;28;58492;-76
2021/09/11 09:09:10;;;;;;;;;0.33;0.33;;;;;19.94;57.99;101656.81;5021645;28;45533;-74
2021/09/11 09:11:37;;;;;;;;;0.33;0.33;;;;;19.95;57.38;101657.69;5024837;28;45476;-74
2021/09/11 09:14:04;;;;;;;;;1.00;1.00;;;;;20.01;58.13;101662.97;5031774;28;45394;-74
2021/09/11 09:16:40;;;;;;;;;1.33;1.33;;;;;20.02;57.58;101681.69;5031464;28;47548;-73
2021/09/11 09:19:15;;;;;;;;;2.33;0.33;;;;;20.04;57.92;101666.50;5023640;28;45415;-74
2021/09/11 09:21:44;;;;;;;;;3.00;1.00;;;;;20.05;56.23;101664.69;5022363;28;46642;-74
2021/09/11 09:24:10;;;;;;;;;1.33;0.33;;;;;20.05;56.50;101662.03;5036978;28;45514;-75
2021/09/11 09:26:56;;;;;;;;;1.33;0.67;;;;;20.08;56.28;101664.63;5035485;28;47756;-75
2021/09/11 09:29:21;;;;;;;;;3.00;1.33;;;;;20.14;56.36;101667.25;5035296;28;45835;-75
2021/09/11 09:31:49;;;;;;;;;2.33;1.33;;;;;20.17;55.93;101671.66;5031018;28;45438;-75
2021/09/11 09:34:37;;;;;;;;;1.00;1.00;;;;;20.19;56.38;101668.06;5030681;28;45665;-75
2021/09/11 09:37:04;;;;;;;;;1.67;1.67;;;;;20.23;56.09;101660.84;5033546;28;46075;-75
2021/09/11 09:39:30;;;;;;;;;2.67;0.00;;;;;20.26;55.25;101669.75;5029734;28;45436;-74
2021/09/11 09:42:02;;;;;;;;;1.67;1.67;;;;;20.29;56.03;101653.56;5034913;28;45585;-75
2021/09/11 09:44:28;;;;;;;;;4.00;1.67;;;;;20.31;56.86;101641.03;5031580;28;45457;-74
2021/09/11 09:46:53;;;;;;;;;1.67;1.67;;;;;20.42;55.88;101651.59;5025951;28;51726;-75
2021/09/11 09:49:20;;;;;;;;;1.67;1.67;;;;;20.56;56.40;101652.28;5034570;28;60740;-75
2021/09/11 09:51:47;;;;;;;;;1.00;1.00;;;;;20.75;56.36;101654.63;5041116;28;45467;-75
2021/09/11 09:54:13;;;;;;;;;0.67;0.67;;;;;20.85;55.55;101643.72;5033606;28;45496;-75
2021/09/11 09:56:39;;;;;;;;;4.00;0.67;;;;;20.95;55.35;101640.84;5026684;28;46360;-75
2021/09/11 09:59:05;;;;;;;;;3.33;2.00;;;;;20.99;55.34;101645.25;5049383;28;45736;-75
2021/09/11 10:01:30;;;;;;;;;1.00;1.00;;;;;21.02;54.57;101643.38;5033249;28;45812;-75
2021/09/11 10:03:56;;;;;;;;;1.00;1.00;;;;;21.12;54.42;101644.09;5028906;28;45334;-75
2021/09/11 10:06:29;;;;;;;;;3.67;1.00;;;;;21.19;54.73;101645.72;5032354;28;47469;-75
2021/09/11 10:08:59;;;;;;;;;3.67;2.00;;;;;21.29;53.79;101644.63;5048574;28;45449;-75
2021/09/11 10:11:38;;;;;;;;;5.00;4.00;;;;;21.36;53.49;101635.59;5043295;28;45433;-75
2021/09/11 10:14:09;;;;;;;;;2.00;2.00;;;;;21.38;52.36;101643.59;5034706;28;45477;-77
2021/09/11 10:16:40;;;;;;;;;3.67;2.00;;;;;21.40;52.49;101639.06;5034249;28;47469;-75
2021/09/11 10:19:22;;;;;;;;;1.00;1.00;;;;;21.41;52.74;101646.22;5025877;28;45582;-75
2021/09/11 10:21:48;;;;;;;;;3.00;1.67;;;;;21.38;51.82;101630.16;5025914;28;46343;-75
2021/09/11 10:24:14;;;;;;;;;2.33;1.67;;;;;21.42;53.06;101638.13;5039800;28;45505;-76
2021/09/11 10:26:55;;;;;;;;;2.00;0.33;;;;;21.49;52.86;101648.75;5033874;28;47274;-77
2021/09/11 10:29:33;;;;;;;;;2.33;2.00;;;;;21.53;51.94;101642.41;5028518;28;45490;-75
2021/09/11 10:32:01;;;;;;;;;1.00;1.00;;;;;21.62;51.83;101640.38;5036966;28;45477;-75
2021/09/11 10:34:51;;;;;;;;;3.00;3.00;;;;;21.74;52.69;101639.25;5035234;28;45595;-76
2021/09/11 10:37:25;;;;;;;;;2.67;2.67;;;;;21.85;51.92;101636.31;5021167;28;46689;-75
2021/09/11 10:40:21;;;;;;;;;5.33;2.00;;;;;21.91;52.51;101636.16;5025766;28;45295;-74
2021/09/11 10:43:04;;;;;;;;;3.00;3.00;;;;;21.91;52.15;101626.28;5027097;28;45265;-75
2021/09/11 10:45:54;;;;;;;;;4.33;3.00;;;;;22.08;52.70;101639.34;5026680;28;45553;-75
2021/09/11 10:48:34;;;;;;;;;6.00;6.00;;;;;22.15;52.04;101630.22;5036700;28;47028;-76
2021/09/11 10:51:13;;;;;;;;;8.67;7.67;;;;;22.27;52.22;101626.38;5028463;28;45314;-75
2021/09/11 10:53:38;;;;;;;;;25.00;20.33;;;;;22.45;52.28;101627.69;5027419;28;45563;-75
2021/09/11 10:56:29;;;;;;;;;3.67;2.00;;;;;22.71;51.72;101627.03;5036287;28;45430;-76
2021/09/11 10:59:19;;;;;;;;;20.00;19.33;;;;;22.83;50.86;101625.81;5036735;28;47535;-75
2021/09/11 11:02:03;;;;;;;;;7.67;6.00;;;;;22.78;50.75;101636.69;5034392;28;45502;-77
2021/09/11 11:04:30;;;;;;;;;4.00;2.00;;;;;22.75;50.83;101628.72;5026566;28;45536;-75
2021/09/11 11:06:57;;;;;;;;;1.67;1.67;;;;;22.70;50.54;101620.75;5051285;28;46535;-75
2021/09/11 11:09:22;;;;;;;;;2.00;2.00;;;;;22.57;50.58;101629.19;5032112;28;47613;-76
2021/09/11 11:11:48;;;;;;;;;3.33;2.33;;;;;22.49;50.78;101638.34;5035720;28;45451;-76
2021/09/11 11:14:14;;;;;;;;;1.00;1.00;;;;;22.34;50.42;101637.84;5027535;28;45295;-76
2021/09/11 11:16:53;;;;;;;;;1.00;1.00;;;;;22.32;49.99;101637.00;5037126;28;45333;-75
2021/09/11 11:19:23;;;;;;;;;1.67;1.33;;;;;22.47;49.95;101634.81;5036425;28;46679;-77
2021/09/11 11:21:59;;;;;;;;;0.00;0.00;;;;;22.60;50.10;101634.50;5029643;28;46780;-76
2021/09/11 11:24:27;;;;;;;;;3.33;2.00;;;;;22.65;48.69;101625.38;5025545;28;45465;-76
2021/09/11 11:26:52;;;;;;;;;4.00;1.00;;;;;22.90;49.35;101632.81;5026949;28;45362;-75